Time;durP1;ratioP1;P1;durP2;ratioP2;P2;SDS_P1;SDS_P2;PMS_P1;PMS_P2;Temp;Humidity;BMP_temperature;BMP_pressure;BME280_temperature;BME280_humidity;BME280_pressure;Samples;Min_cycle;Max_cycle;Signal;HPM_P1;HPM_P2
2022/02/06 00:00:06;;;;;;;4.70;1.70;;;;;;;8.67;53.53;100725.91;4999455;28;97243;-77
2022/02/06 00:02:35;;;;;;;8.02;1.75;;;;;;;8.53;53.96;100693.00;5001141;28;97810;-78
2022/02/06 00:05:02;;;;;;;10.93;1.70;;;;;;;8.25;54.83;100701.59;5004109;28;97642;-79
2022/02/06 00:07:29;;;;;;;5.15;1.60;;;;;;;8.56;53.64;100696.41;5000830;28;96806;-76
2022/02/06 00:09:56;;;;;;;5.47;1.48;;;;;;;8.90;52.96;100698.06;4996682;28;96755;-79
2022/02/06 00:12:22;;;;;;;11.32;1.58;;;;;;;9.24;51.81;100692.66;4993911;28;98345;-78
2022/02/06 00:14:48;;;;;;;4.97;1.80;;;;;;;9.08;51.90;100682.56;4995733;28;98890;-77
2022/02/06 00:17:16;;;;;;;9.07;1.33;;;;;;;9.17;51.38;100684.06;4998381;28;98413;-77
2022/02/06 00:19:43;;;;;;;5.55;1.67;;;;;;;9.13;51.14;100680.66;4984246;28;96818;-79
2022/02/06 00:22:13;;;;;;;7.57;1.50;;;;;;;8.93;51.53;100675.09;4991455;28;100354;-77
2022/02/06 00:24:45;;;;;;;7.70;1.70;;;;;;;8.91;51.54;100666.41;4995610;28;98901;-79
2022/02/06 00:27:23;;;;;;;4.25;1.30;;;;;;;9.12;51.09;100652.56;4995336;28;97107;-78
2022/02/06 00:29:54;;;;;;;4.55;1.73;;;;;;;8.98;51.14;100646.00;4998158;28;98974;-78
2022/02/06 00:32:33;;;;;;;8.38;1.52;;;;;;;8.98;51.05;100652.13;4997608;28;97635;-77
2022/02/06 00:35:29;;;;;;;6.47;1.55;;;;;;;8.90;50.99;100648.00;4989244;28;97638;-77
2022/02/06 00:38:08;;;;;;;1.77;0.83;;;;;;;8.49;51.11;100626.38;4988995;28;96983;-79
2022/02/06 00:40:52;;;;;;;4.22;1.70;;;;;;;9.01;50.59;100636.22;4989266;28;98594;-79
2022/02/06 00:43:19;;;;;;;5.70;1.55;;;;;;;8.82;50.39;100624.50;4981863;28;99280;-80
2022/02/06 00:45:45;;;;;;;6.10;1.35;;;;;;;9.06;49.68;100617.63;4995872;28;98836;-80
2022/02/06 00:48:18;;;;;;;5.90;1.40;;;;;;;8.90;49.99;100611.09;4999872;28;96685;-78
2022/02/06 00:50:47;;;;;;;6.07;1.60;;;;;;;8.90;50.02;100619.00;4993363;28;96856;-78
2022/02/06 00:53:17;;;;;;;9.70;1.90;;;;;;;9.08;49.34;100600.84;4986126;28;99342;-77
2022/02/06 00:55:43;;;;;;;4.38;1.83;;;;;;;9.26;48.94;100606.44;4989995;28;98987;-79
2022/02/06 00:58:10;;;;;;;3.92;1.42;;;;;;;9.16;49.13;100598.84;4988445;28;97623;-79
2022/02/06 01:00:36;;;;;;;6.20;1.20;;;;;;;9.08;49.17;100585.03;4991989;28;97312;-79
2022/02/06 01:03:03;;;;;;;5.28;1.58;;;;;;;9.24;48.83;100593.31;4990633;28;98425;-78
2022/02/06 01:05:32;;;;;;;5.57;1.30;;;;;;;9.04;49.00;100579.91;4989885;28;97988;-79
2022/02/06 01:07:58;;;;;;;5.15;1.50;;;;;;;9.02;48.96;100579.97;5008089;28;96759;-79
2022/02/06 01:10:27;;;;;;;6.43;1.52;;;;;;;9.46;48.07;100567.09;5001341;28;97562;-79
2022/02/06 01:12:58;;;;;;;7.85;1.85;;;;;;;9.22;48.58;100567.91;4981826;28;101670;-79
2022/02/06 01:15:29;;;;;;;5.97;1.60;;;;;;;9.24;48.51;100568.72;4993260;28;99214;-79
2022/02/06 01:18:00;;;;;;;3.65;1.13;;;;;;;9.30;48.02;100553.56;4995357;28;97470;-79
2022/02/06 01:20:32;;;;;;;7.28;1.33;;;;;;;9.38;47.90;100554.19;4986250;28;97149;-80
2022/02/06 01:23:04;;;;;;;7.30;1.20;;;;;;;9.18;48.27;100541.66;4991091;28;99027;-80
2022/02/06 01:25:36;;;;;;;5.50;1.35;;;;;;;9.41;47.73;100535.59;4990989;28;101288;-79
2022/02/06 01:28:06;;;;;;;7.68;1.67;;;;;;;9.50;47.44;100531.81;5003802;28;96851;-78
2022/02/06 01:30:34;;;;;;;4.90;1.10;;;;;;;9.34;47.56;100539.34;4998025;28;96808;-79
2022/02/06 01:33:05;;;;;;;5.47;1.08;;;;;;;8.99;48.32;100526.50;4990665;28;99333;-79
2022/02/06 01:35:39;;;;;;;6.50;1.30;;;;;;;9.06;48.82;100517.44;4986160;28;102072;-78
2022/02/06 01:38:16;;;;;;;2.80;1.00;;;;;;;9.27;48.06;100515.88;4986366;28;98054;-78
2022/02/06 01:40:55;;;;;;;3.55;1.05;;;;;;;9.39;48.44;100515.47;4981354;28;97080;-78
2022/02/06 01:43:26;;;;;;;4.28;1.48;;;;;;;9.51;47.97;100502.75;4999850;28;99597;-78
2022/02/06 01:46:12;;;;;;;4.97;0.95;;;;;;;9.66;48.15;100509.22;4994371;28;97970;-79
2022/02/06 02:02:48;;;;;;;2.45;0.88;;;;;;;9.53;48.62;100468.38;4965845;28;97655;-76
2022/02/06 02:08:42;;;;;;;3.35;1.27;;;;;;;9.11;50.46;100462.84;4929296;28;97851;-76
2022/02/06 02:26:07;;;;;;;4.15;0.80;;;;;;;9.05;51.68;100421.72;4945388;28;96821;-76
2022/02/06 02:29:17;;;;;;;2.95;0.85;;;;;;;9.37;51.40;100412.69;4969889;28;101338;-76
2022/02/06 02:32:05;;;;;;;4.50;0.88;;;;;;;9.08;51.76;100400.53;4968456;28;98821;-76
2022/02/06 02:43:17;;;;;;;6.38;1.33;;;;;;;9.52;52.01;100384.88;4970751;28;97144;-76
2022/02/06 02:46:03;;;;;;;6.45;1.48;;;;;;;9.57;52.05;100378.53;4967834;28;96756;-77
2022/02/06 02:48:30;;;;;;;1.97;0.77;;;;;;;9.55;52.13;100384.78;4967023;28;97589;-76
2022/02/06 02:51:01;;;;;;;5.40;1.00;;;;;;;9.57;52.24;100385.59;4967019;28;99199;-76
2022/02/06 02:53:32;;;;;;;8.48;0.90;;;;;;;9.34;52.79;100386.41;4969294;28;99197;-76
2022/02/06 02:56:12;;;;;;;9.45;1.45;;;;;;;8.91;54.15;100368.63;4968992;28;97098;-76
2022/02/06 02:58:52;;;;;;;4.55;1.17;;;;;;;9.24;53.67;100355.19;4972819;28;97607;-77
2022/02/06 03:01:26;;;;;;;3.60;1.20;;;;;;;8.78;54.94;100349.75;4969340;28;98880;-76
2022/02/06 03:03:53;;;;;;;6.90;1.30;;;;;;;8.84;55.46;100348.69;4970706;28;102133;-76
2022/02/06 03:06:19;;;;;;;4.72;0.93;;;;;;;9.25;54.06;100352.50;4962931;28;98667;-76
2022/02/06 03:08:47;;;;;;;4.18;1.02;;;;;;;8.90;54.81;100343.19;4968639;28;97222;-76
2022/02/06 03:11:15;;;;;;;5.57;1.17;;;;;;;9.18;54.80;100338.69;4970068;28;99896;-75
2022/02/06 03:13:48;;;;;;;5.82;1.15;;;;;;;8.82;56.06;100326.78;4968030;28;99428;-77
2022/02/06 03:16:26;;;;;;;8.20;1.58;;;;;;;8.82;56.39;100328.56;4959247;28;97223;-75
2022/02/06 03:19:02;;;;;;;4.07;1.00;;;;;;;9.16;55.18;100315.91;4971963;28;97753;-75
2022/02/06 03:21:30;;;;;;;4.75;1.13;;;;;;;8.57;57.10;100310.13;4963097;28;98989;-76
2022/02/06 03:24:06;;;;;;;5.65;1.40;;;;;;;8.56;57.18;100293.44;4964940;28;98916;-76
2022/02/06 03:26:34;;;;;;;3.22;1.02;;;;;;;9.09;55.86;100283.66;4972333;28;97119;-75
2022/02/06 03:29:00;;;;;;;4.25;1.27;;;;;;;8.73;56.66;100284.94;4973045;28;96978;-75
2022/02/06 03:31:26;;;;;;;6.57;1.17;;;;;;;8.87;56.89;100289.72;4971558;28;98962;-75
2022/02/06 03:33:53;;;;;;;3.45;1.00;;;;;;;8.60;57.33;100286.31;4973529;28;99401;-75
2022/02/06 03:36:20;;;;;;;5.82;1.33;;;;;;;8.15;59.10;100283.41;4964211;28;96779;-75
2022/02/06 03:38:48;;;;;;;5.03;1.10;;;;;;;8.55;57.72;100275.06;4973246;28;96824;-75
2022/02/06 03:41:16;;;;;;;3.50;1.20;;;;;;;8.58;57.59;100267.06;4971598;28;98921;-75
2022/02/06 03:43:52;;;;;;;2.30;1.00;;;;;;;8.28;58.39;100263.66;4973998;28;98810;-75
2022/02/06 03:46:26;;;;;;;8.07;1.30;;;;;;;8.47;58.24;100256.88;4971267;28;96775;-75
2022/02/06 03:48:55;;;;;;;3.28;1.25;;;;;;;8.46;58.46;100272.75;4969055;28;98765;-75
2022/02/06 03:51:29;;;;;;;6.25;1.30;;;;;;;8.45;58.29;100252.59;4969184;28;99135;-76
2022/02/06 03:53:55;;;;;;;6.68;1.38;;;;;;;7.96;60.02;100248.94;4971021;28;102481;-75
2022/02/06 03:56:23;;;;;;;8.52;2.15;;;;;;;8.16;59.70;100253.56;4975122;28;98771;-75
2022/02/06 03:58:51;;;;;;;8.18;1.73;;;;;;;8.22;59.70;100227.88;4971281;28;96930;-75
2022/02/06 04:01:17;;;;;;;4.45;1.33;;;;;;;8.32;59.77;100241.63;4970233;28;99442;-77
2022/02/06 04:03:43;;;;;;;5.55;1.35;;;;;;;8.47;59.08;100243.72;4978326;28;98999;-77
2022/02/06 04:06:10;;;;;;;5.68;1.40;;;;;;;8.46;59.08;100243.81;4994093;28;96731;-74
2022/02/06 04:08:38;;;;;;;6.10;1.55;;;;;;;8.40;58.68;100223.81;4973166;28;96708;-76
2022/02/06 04:11:08;;;;;;;9.10;1.90;;;;;;;8.25;59.96;100230.44;4972571;28;99085;-77
2022/02/06 04:13:40;;;;;;;5.22;1.40;;;;;;;8.52;58.97;100226.00;4966880;28;99406;-75
2022/02/06 04:16:14;;;;;;;5.32;1.27;;;;;;;8.99;57.83;100216.34;4971994;28;96768;-75
2022/02/06 04:18:49;;;;;;;8.60;1.88;;;;;;;8.38;59.54;100225.63;4971263;28;97047;-76
2022/02/06 04:21:16;;;;;;;5.38;1.88;;;;;;;8.96;58.06;100205.94;4973454;28;101018;-75
2022/02/06 04:23:42;;;;;;;4.45;1.25;;;;;;;9.05;57.65;100204.75;4972424;28;99362;-75
2022/02/06 04:26:08;;;;;;;6.13;1.58;;;;;;;8.98;58.12;100204.13;4973954;28;96909;-76
2022/02/06 04:28:35;;;;;;;7.88;1.33;;;;;;;8.86;58.06;100194.03;4973420;28;97103;-76
2022/02/06 04:31:01;;;;;;;9.90;1.92;;;;;;;8.99;57.39;100186.53;4973472;28;98965;-76
2022/02/06 04:33:29;;;;;;;6.63;1.63;;;;;;;8.76;58.40;100180.34;4971961;28;99074;-76
2022/02/06 04:35:59;;;;;;;8.60;1.95;;;;;;;8.46;59.73;100167.44;4971592;28;97720;-76
2022/02/06 04:38:39;;;;;;;5.95;1.67;;;;;;;8.83;58.42;100157.25;4971162;28;96699;-76
2022/02/06 04:41:20;;;;;;;8.48;1.58;;;;;;;8.70;59.09;100151.59;4972256;28;100181;-75
2022/02/06 04:52:50;;;;;;;9.13;1.75;;;;;;;8.85;58.78;100128.22;4960726;28;98254;-75
2022/02/06 04:55:36;;;;;;;9.27;1.35;;;;;;;8.38;60.45;100142.25;4967144;28;98493;-76
2022/02/06 05:14:50;;;;;;;7.93;1.73;;;;;;;8.50;60.25;100105.84;4970559;28;99038;-76
2022/02/06 05:17:37;;;;;;;8.85;1.60;;;;;;;8.89;60.02;100111.38;4964370;28;98851;-76
2022/02/06 05:20:32;;;;;;;;;;;;;;;8.77;59.74;100105.69;4967025;28;96785;-76
2022/02/06 05:23:20;;;;;;;5.95;1.40;;;;;;;8.51;60.60;100100.53;4971664;28;96845;-74
2022/02/06 05:28:39;;;;;;;8.10;2.50;;;;;;;8.87;60.13;100093.00;4934885;28;98216;-75
2022/02/06 05:31:09;;;;;;;12.25;1.50;;;;;;;8.90;60.28;100082.34;4969890;28;98070;-77
2022/02/06 05:33:36;;;;;;;8.27;1.60;;;;;;;8.95;60.38;100079.53;4969781;28;97593;-76
2022/02/06 05:36:04;;;;;;;5.47;1.27;;;;;;;9.06;59.26;100075.53;4974045;28;99538;-78
2022/02/06 05:38:31;;;;;;;8.82;1.65;;;;;;;9.15;59.33;100082.22;4969146;28;99284;-77
2022/02/06 05:40:58;;;;;;;3.35;1.27;;;;;;;8.61;60.82;100079.97;4969225;28;97461;-76
2022/02/06 05:43:24;;;;;;;6.40;1.80;;;;;;;8.82;60.79;100076.50;4976538;28;96842;-76
2022/02/06 05:45:50;;;;;;;4.18;1.33;;;;;;;8.77;60.89;100066.16;4975364;28;97728;-76
2022/02/06 05:48:17;;;;;;;7.43;1.60;;;;;;;8.86;60.73;100072.81;4982556;28;99088;-76
2022/02/06 05:50:43;;;;;;;7.70;2.00;;;;;;;9.00;60.42;100065.25;4978115;28;97073;-73
2022/02/06 05:53:10;;;;;;;4.57;1.60;;;;;;;9.10;60.42;100068.38;4979023;28;96716;-76
2022/02/06 05:55:38;;;;;;;2.97;1.35;;;;;;;8.44;62.00;100066.59;4985994;28;98133;-76
2022/02/06 05:58:05;;;;;;;6.47;1.25;;;;;;;8.71;61.31;100055.00;4974037;28;99473;-76
2022/02/06 06:00:31;;;;;;;5.55;1.50;;;;;;;8.80;61.78;100052.00;4967933;28;96718;-75
2022/02/06 06:02:58;;;;;;;4.55;1.58;;;;;;;8.83;61.65;100045.75;4973404;28;96709;-74
2022/02/06 06:05:25;;;;;;;5.57;1.30;;;;;;;8.82;61.72;100044.03;4966298;28;99246;-75
2022/02/06 06:07:51;;;;;;;7.68;1.55;;;;;;;8.89;61.06;100046.38;4970170;28;97759;-76
2022/02/06 06:10:18;;;;;;;6.95;1.88;;;;;;;9.12;60.49;100045.47;4970094;28;96753;-77
2022/02/06 06:12:45;;;;;;;5.13;1.50;;;;;;;8.73;61.64;100034.72;4996279;28;97237;-75
2022/02/06 06:15:12;;;;;;;5.72;1.38;;;;;;;8.65;62.03;100047.34;4995474;28;97505;-76
2022/02/06 06:17:38;;;;;;;4.85;1.27;;;;;;;8.79;61.35;100031.88;4992659;28;98093;-76
2022/02/06 06:20:10;;;;;;;7.95;1.48;;;;;;;8.90;61.85;100036.69;4998994;28;97306;-75
2022/02/06 06:22:37;;;;;;;5.82;1.30;;;;;;;8.96;61.50;100042.56;4979226;28;97717;-76
2022/02/06 06:25:05;;;;;;;3.88;1.30;;;;;;;8.90;61.85;100028.78;4975111;28;99087;-77
2022/02/06 06:27:32;;;;;;;7.32;1.70;;;;;;;8.86;61.87;100030.66;4975405;28;99573;-76
2022/02/06 06:29:59;;;;;;;3.53;1.23;;;;;;;9.17;61.01;100025.91;4973593;28;96704;-76
2022/02/06 06:32:26;;;;;;;4.93;1.42;;;;;;;9.01;61.60;100016.03;4968327;28;96913;-75
2022/02/06 06:34:54;;;;;;;4.43;1.30;;;;;;;8.89;61.81;100013.91;4971307;28;99224;-75
2022/02/06 06:37:21;;;;;;;2.15;0.93;;;;;;;8.70;61.99;100014.63;4971222;28;98822;-75
2022/02/06 06:39:48;;;;;;;5.03;1.77;;;;;;;8.83;62.40;100020.28;4973432;28;97587;-76
2022/02/06 06:42:15;;;;;;;3.13;1.20;;;;;;;8.82;62.42;100000.13;4973132;28;96922;-75
2022/02/06 06:44:43;;;;;;;4.32;1.33;;;;;;;8.71;62.72;99999.69;4973729;28;98966;-76
2022/02/06 06:47:11;;;;;;;3.22;1.15;;;;;;;8.98;62.26;100003.84;4972097;28;98795;-76
2022/02/06 06:49:38;;;;;;;6.18;1.15;;;;;;;8.95;62.29;99993.44;4969940;28;96759;-76
2022/02/06 06:52:05;;;;;;;6.38;1.65;;;;;;;9.02;62.26;99994.91;4972274;28;98244;-77
2022/02/06 06:54:37;;;;;;;3.55;1.40;;;;;;;8.73;63.31;99984.66;4970907;28;99246;-76
2022/02/06 06:57:09;;;;;;;5.95;2.63;;;;;;;8.64;63.33;99987.69;4971899;28;99065;-76
2022/02/06 06:59:47;;;;;;;3.85;1.27;;;;;;;9.08;62.43;99989.38;4965761;28;99276;-76
2022/02/06 07:02:27;;;;;;;3.42;1.30;;;;;;;9.36;61.22;99991.72;4967880;28;96742;-77
2022/02/06 07:04:56;;;;;;;5.03;1.38;;;;;;;8.95;62.71;99988.16;4963890;28;99385;-77
2022/02/06 07:07:23;;;;;;;3.83;1.00;;;;;;;9.03;62.81;99982.56;4969765;28;98244;-79
2022/02/06 07:09:50;;;;;;;5.60;1.45;;;;;;;8.87;62.87;99968.31;4961568;28;98005;-77
2022/02/06 07:12:16;;;;;;;6.07;1.20;;;;;;;8.83;63.48;99979.91;4969349;28;96721;-76
2022/02/06 07:14:43;;;;;;;4.78;1.42;;;;;;;9.03;62.90;99978.16;4973893;28;98805;-77
2022/02/06 07:17:10;;;;;;;6.82;1.40;;;;;;;9.17;62.42;99964.41;4972408;28;101225;-75
2022/02/06 07:19:39;;;;;;;4.13;1.35;;;;;;;9.06;62.74;99972.75;4971914;28;96813;-75
2022/02/06 07:22:08;;;;;;;5.13;1.08;;;;;;;8.92;62.98;99955.81;4970631;28;96802;-75
2022/02/06 07:24:35;;;;;;;2.53;1.13;;;;;;;9.02;63.08;99963.28;4971076;28;99397;-76
2022/02/06 07:27:05;;;;;;;7.22;1.10;;;;;;;8.91;63.03;99962.88;4968719;28;98985;-75
2022/02/06 07:29:31;;;;;;;2.50;1.30;;;;;;;8.94;63.13;99959.22;4967165;28;96775;-77
2022/02/06 07:32:00;;;;;;;5.90;1.20;;;;;;;9.16;62.05;99960.94;4972283;28;98230;-77
2022/02/06 07:34:26;;;;;;;4.63;1.15;;;;;;;9.25;61.99;99958.81;4970380;28;100144;-78
2022/02/06 07:36:54;;;;;;;3.72;0.90;;;;;;;8.80;62.86;99946.63;4969711;28;99042;-78
2022/02/06 07:39:21;;;;;;;5.63;1.20;;;;;;;9.11;62.58;99952.34;4967881;28;97805;-78
2022/02/06 07:41:47;;;;;;;3.28;1.00;;;;;;;9.03;62.47;99948.31;4971265;28;96814;-77
2022/02/06 07:44:13;;;;;;;3.22;0.98;;;;;;;9.18;62.23;99934.50;4970360;28;97741;-77
2022/02/06 07:46:44;;;;;;;7.68;1.20;;;;;;;9.26;62.49;99945.56;4963114;28;98902;-76
2022/02/06 07:49:11;;;;;;;2.95;0.80;;;;;;;9.28;61.76;99919.13;4963871;28;97805;-77
2022/02/06 07:51:39;;;;;;;3.15;0.73;;;;;;;9.30;61.61;99926.06;4959431;22;96852;-78
2022/02/06 07:54:08;;;;;;;2.45;0.70;;;;;;;9.69;60.57;99927.88;4932823;28;98826;-80
2022/02/06 07:56:34;;;;;;;4.45;0.90;;;;;;;9.55;61.20;99928.50;4937772;28;96791;-79
2022/02/06 07:59:01;;;;;;;2.25;1.02;;;;;;;9.85;60.60;99911.28;4942472;28;97113;-79
2022/02/06 08:01:28;;;;;;;4.03;0.88;;;;;;;9.83;60.50;99921.06;4938404;28;96859;-79
2022/02/06 08:03:54;;;;;;;3.20;0.70;;;;;;;9.63;60.83;99915.81;4929380;28;98661;-78
2022/02/06 08:06:21;;;;;;;3.03;0.90;;;;;;;9.01;62.34;99908.84;4933104;28;98775;-78
2022/02/06 08:08:48;;;;;;;5.43;1.23;;;;;;;9.20;62.25;99919.47;4931682;28;97172;-79
2022/02/06 08:11:16;;;;;;;2.05;0.73;;;;;;;9.70;60.98;99908.50;4935391;28;97251;-78
2022/02/06 08:13:45;;;;;;;3.10;0.90;;;;;;;9.36;61.19;99902.06;4933730;28;97754;-78
2022/02/06 08:16:12;;;;;;;3.42;0.85;;;;;;;9.35;61.77;99897.72;4946435;28;98935;-77
2022/02/06 08:18:40;;;;;;;4.28;1.30;;;;;;;10.06;60.07;99905.94;4941088;28;96697;-79
2022/02/06 08:21:07;;;;;;;5.90;0.90;;;;;;;10.04;59.88;99902.53;4939921;28;96784;-79
2022/02/06 08:23:34;;;;;;;3.35;0.70;;;;;;;10.00;59.35;99897.38;4949725;28;98308;-80
2022/02/06 08:26:01;;;;;;;1.30;0.60;;;;;;;9.74;59.95;99888.94;4941249;28;98795;-79
2022/02/06 08:28:29;;;;;;;1.42;0.57;;;;;;;9.79;60.25;99882.53;4939263;28;96771;-78
2022/02/06 08:30:55;;;;;;;1.75;0.90;;;;;;;10.01;59.65;99892.97;4953978;28;96975;-80
2022/02/06 08:33:21;;;;;;;3.42;0.90;;;;;;;9.85;60.64;99882.25;4942117;28;99035;-77
2022/02/06 08:35:49;;;;;;;4.13;1.08;;;;;;;9.88;60.03;99882.13;4949592;28;97898;-79
2022/02/06 08:38:16;;;;;;;2.63;1.23;;;;;;;10.10;59.22;99867.94;4946540;28;96730;-78
2022/02/06 08:40:42;;;;;;;2.03;0.85;;;;;;;9.69;60.16;99865.41;4943440;28;97347;-78
2022/02/06 08:43:09;;;;;;;2.10;0.88;;;;;;;9.86;59.75;99862.84;4941188;28;97956;-80
2022/02/06 08:45:38;;;;;;;3.13;1.00;;;;;;;10.21;58.94;99853.31;4937416;28;100667;-79
2022/02/06 08:48:09;;;;;;;2.17;0.70;;;;;;;10.15;58.79;99856.22;4946002;28;96675;-82
2022/02/06 08:50:35;;;;;;;4.78;0.68;;;;;;;10.48;58.45;99859.03;4943443;28;96863;-80
2022/02/06 08:53:01;;;;;;;1.10;0.70;;;;;;;10.24;58.74;99862.88;4944812;28;98992;-80
2022/02/06 08:55:29;;;;;;;2.35;0.60;;;;;;;10.26;58.71;99858.38;4938144;28;98671;-79
2022/02/06 08:57:58;;;;;;;2.95;0.63;;;;;;;10.41;58.74;99855.00;4946586;28;96740;-82
2022/02/06 09:00:26;;;;;;;2.45;0.82;;;;;;;10.59;58.11;99862.00;4945261;28;96746;-80
2022/02/06 09:02:55;;;;;;;1.17;0.50;;;;;;;10.52;57.85;99852.66;4954716;28;98316;-81
2022/02/06 09:05:22;;;;;;;3.40;0.57;;;;;;;10.96;57.26;99853.06;4933911;28;98007;-80
2022/02/06 09:07:49;;;;;;;1.27;0.70;;;;;;;11.00;56.81;99846.72;4947335;28;96710;-80
2022/02/06 09:10:15;;;;;;;1.60;0.50;;;;;;;10.70;57.65;99851.75;4950382;28;96810;-79
2022/02/06 09:12:48;;;;;;;2.38;0.73;;;;;;;10.28;58.51;99851.22;4952002;28;98208;-77
2022/02/06 09:15:16;;;;;;;0.45;0.43;;;;;;;10.26;59.06;99840.75;4943700;28;98904;-78
2022/02/06 09:17:42;;;;;;;3.17;0.70;;;;;;;10.02;59.84;99847.16;4937330;28;97347;-78
2022/02/06 09:20:12;;;;;;;3.15;0.70;;;;;;;10.08;59.83;99830.19;4952841;28;97254;-79
2022/02/06 09:22:40;;;;;;;1.58;0.50;;;;;;;10.46;58.73;99826.56;4939524;28;99048;-79
2022/02/06 09:25:08;;;;;;;1.10;0.45;;;;;;;10.56;58.56;99817.25;4948054;28;98065;-79
2022/02/06 09:27:37;;;;;;;2.28;0.75;;;;;;;10.67;57.78;99820.22;4948674;28;98742;-79
2022/02/06 09:30:04;;;;;;;2.70;0.90;;;;;;;10.56;58.44;99829.63;4957459;28;96815;-79
2022/02/06 09:37:25;;;;;;;1.75;0.60;;;;;;;10.77;57.95;99802.09;4945058;28;96934;-79
2022/02/06 09:39:51;;;;;;;2.95;0.90;;;;;;;10.59;58.85;99801.25;4943285;28;97161;-80
2022/02/06 09:42:20;;;;;;;1.45;0.55;;;;;;;10.74;58.24;99805.75;4941263;28;100147;-82
2022/02/06 09:44:48;;;;;;;5.55;0.75;;;;;;;10.73;58.61;99800.53;4949474;28;98655;-80
2022/02/06 09:47:17;;;;;;;1.05;0.60;;;;;;;10.74;58.43;99795.19;4930857;28;97851;-79
2022/02/06 09:49:44;;;;;;;1.85;0.80;;;;;;;11.01;57.45;99792.06;4940872;28;97133;-79
2022/02/06 09:52:17;;;;;;;2.65;0.70;;;;;;;11.23;57.13;99782.03;4936226;28;96918;-81
2022/02/06 09:54:48;;;;;;;1.85;0.95;;;;;;;11.21;57.45;99783.06;4935389;28;99419;-78
2022/02/06 09:57:24;;;;;;;3.10;0.50;;;;;;;11.23;56.96;99773.25;4937714;28;96937;-78
2022/02/06 09:59:52;;;;;;;2.57;0.77;;;;;;;11.30;57.08;99782.56;4943377;28;97767;-81
2022/02/06 10:02:20;;;;;;;3.45;0.80;;;;;;;11.11;56.93;99761.53;4939721;28;99679;-79
2022/02/06 10:04:49;;;;;;;3.75;1.10;;;;;;;11.14;56.90;99779.91;4936405;28;98754;-78
2022/02/06 10:07:22;;;;;;;1.75;0.57;;;;;;;11.06;56.94;99759.16;4941952;28;99098;-78
2022/02/06 10:09:54;;;;;;;4.57;0.70;;;;;;;11.52;56.03;99765.47;4942715;28;96772;-79
2022/02/06 10:12:22;;;;;;;6.68;1.40;;;;;;;11.82;55.17;99754.13;4939344;28;97239;-80
2022/02/06 10:14:49;;;;;;;1.17;0.70;;;;;;;11.87;54.57;99738.88;4931890;28;98813;-79
2022/02/06 10:17:17;;;;;;;2.70;0.60;;;;;;;11.62;55.53;99736.69;4928430;28;96825;-80
2022/02/06 10:19:50;;;;;;;1.63;0.75;;;;;;;11.68;55.40;99727.59;4928861;28;97136;-80
2022/02/06 10:22:26;;;;;;;2.22;0.70;;;;;;;11.35;56.22;99725.88;4930083;28;98202;-83
2022/02/06 10:25:04;;;;;;;4.05;0.98;;;;;;;11.52;56.00;99724.91;4941955;28;101334;-83
2022/02/06 10:28:20;;;;;;;1.35;0.80;;;;;;;11.36;55.88;99713.47;4941637;28;96708;-84
2022/02/06 10:30:51;;;;;;;2.03;0.60;;;;;;;11.57;55.47;99702.56;4883894;28;97136;-83
2022/02/06 10:33:21;;;;;;;2.15;0.60;;;;;;;11.47;55.82;99698.72;4873379;28;97976;-83
2022/02/06 10:35:51;;;;;;;3.30;0.75;;;;;;;11.93;54.70;99699.66;4915295;28;97946;-83
2022/02/06 10:38:20;;;;;;;1.55;0.70;;;;;;;11.13;56.52;99675.94;4951955;28;98105;-82
2022/02/06 10:41:04;;;;;;;2.08;0.52;;;;;;;11.62;55.44;99670.53;4933925;28;98331;-81
2022/02/06 10:43:35;;;;;;;3.45;0.68;;;;;;;11.97;54.32;99672.06;4938574;28;98080;-77
2022/02/06 10:46:12;;;;;;;3.00;0.70;;;;;;;12.10;53.97;99661.59;4933126;28;99175;-79
2022/02/06 10:48:47;;;;;;;1.25;0.63;;;;;;;11.69;55.03;99647.22;4929920;28;97032;-78
2022/02/06 10:51:38;;;;;;;2.53;0.50;;;;;;;11.93;54.01;99651.16;4936880;28;97528;-79
2022/02/06 10:54:07;;;;;;;2.42;0.50;;;;;;;12.10;53.64;99650.16;4936136;28;97615;-75
2022/02/06 10:56:40;;;;;;;1.38;0.60;;;;;;;11.94;54.33;99634.34;4939332;28;97808;-77
2022/02/06 10:59:08;;;;;;;1.77;0.57;;;;;;;11.72;53.55;99625.91;4935285;28;96789;-78
2022/02/06 11:01:39;;;;;;;4.25;1.13;;;;;;;11.66;53.90;99618.31;4938609;28;97192;-78
2022/02/06 11:04:16;;;;;;;1.83;0.60;;;;;;;11.84;54.50;99619.91;4947594;28;98195;-78
2022/02/06 11:06:46;;;;;;;4.93;0.80;;;;;;;11.52;54.14;99606.72;4942316;28;98840;-79
2022/02/06 11:09:24;;;;;;;1.45;0.60;;;;;;;11.42;54.46;99612.66;4947843;28;96761;-80
2022/02/06 11:11:52;;;;;;;1.40;0.60;;;;;;;11.56;53.89;99600.31;4947584;28;97056;-79
2022/02/06 11:14:23;;;;;;;2.15;0.70;;;;;;;11.95;53.33;99612.19;4954106;28;99310;-81
2022/02/06 11:16:50;;;;;;;1.40;0.40;;;;;;;11.43;54.32;99594.00;4958924;28;100690;-80
2022/02/06 11:19:18;;;;;;;1.83;0.70;;;;;;;11.89;53.13;99588.72;4953234;28;96646;-80
2022/02/06 11:21:45;;;;;;;1.20;0.50;;;;;;;11.93;53.14;99580.53;4952259;28;96874;-77
2022/02/06 11:24:19;;;;;;;1.98;0.60;;;;;;;11.52;53.48;99593.50;4949396;28;98164;-78
2022/02/06 11:26:46;;;;;;;1.30;0.50;;;;;;;11.58;53.54;99571.97;4946783;28;99233;-79
2022/02/06 11:29:15;;;;;;;1.23;0.60;;;;;;;11.65;53.22;99580.41;4965225;28;96429;-82
2022/02/06 11:31:42;;;;;;;3.42;0.77;;;;;;;11.64;53.19;99559.31;4959782;28;96565;-81
2022/02/06 11:34:12;;;;;;;5.30;0.77;;;;;;;11.08;53.82;99548.44;4944566;28;96803;-80
2022/02/06 11:43:47;;;;;;;1.77;0.80;;;;;;;11.81;52.41;99524.84;4940461;28;96883;-81
2022/02/06 11:45:56;;;;;;;0.57;0.47;;;;;;;11.91;52.26;99512.75;4944052;28;98669;-79
2022/02/06 11:48:27;;;;;;;1.35;0.60;;;;;;;11.69;52.20;99509.63;4944221;28;99875;-79
2022/02/06 11:50:55;;;;;;;0.57;0.40;;;;;;;11.80;52.56;99508.09;4945127;28;96808;-79
2022/02/06 11:53:29;;;;;;;1.63;0.60;;;;;;;11.55;53.02;99505.19;4943620;28;96779;-77
2022/02/06 11:55:57;;;;;;;3.13;0.70;;;;;;;11.82;52.32;99497.41;4941230;28;100745;-78
2022/02/06 11:58:28;;;;;;;1.77;0.80;;;;;;;11.78;52.25;99509.97;4943433;28;99019;-79
2022/02/06 12:01:22;;;;;;;2.35;0.77;;;;;;;11.76;52.25;99479.25;4943283;28;97404;-80
2022/02/06 12:04:07;;;;;;;1.58;0.68;;;;;;;11.99;52.50;99470.78;4948657;28;96840;-80
2022/02/06 12:06:57;;;;;;;0.50;0.50;;;;;;;11.68;52.83;99465.63;4952224;28;99502;-80
2022/02/06 12:09:29;;;;;;;1.23;0.43;;;;;;;11.77;53.28;99460.63;4940754;28;98829;-78
2022/02/06 12:12:10;;;;;;;0.82;0.50;;;;;;;11.64;53.74;99461.44;4948591;28;97541;-78
2022/02/06 12:14:40;;;;;;;2.15;0.60;;;;;;;11.42;55.07;99456.59;4946391;28;96818;-78
2022/02/06 12:17:18;;;;;;;1.20;0.50;;;;;;;12.09;53.98;99444.56;4934062;28;99314;-77
2022/02/06 12:20:06;;;;;;;0.75;0.40;;;;;;;12.14;52.79;99432.72;4936239;28;99287;-77
2022/02/06 12:22:41;;;;;;;2.47;0.60;;;;;;;12.01;53.15;99430.97;4941464;28;96947;-77
2022/02/06 12:25:30;;;;;;;0.70;0.50;;;;;;;11.80;54.09;99425.19;4949678;28;96823;-78
2022/02/06 12:28:27;;;;;;;1.45;0.45;;;;;;;11.95;53.12;99421.59;4942518;28;99016;-76
2022/02/06 12:31:15;;;;;;;0.65;0.50;;;;;;;12.10;52.67;99414.50;4946112;28;99420;-77
2022/02/06 12:33:50;;;;;;;1.63;0.50;;;;;;;11.66;54.40;99404.00;4947513;28;96673;-79
2022/02/06 12:39:19;;;;;;;1.02;0.40;;;;;;;11.48;54.36;99376.88;4942723;28;97655;-79
2022/02/06 12:41:46;;;;;;;0.65;0.40;;;;;;;11.64;54.03;99377.63;4941266;28;100284;-78
2022/02/06 12:44:16;;;;;;;1.30;0.70;;;;;;;11.62;54.42;99360.97;4953596;28;96727;-80
2022/02/06 12:46:46;;;;;;;1.15;0.40;;;;;;;11.56;54.35;99351.63;4940011;28;96827;-79
2022/02/06 12:49:17;;;;;;;2.05;0.50;;;;;;;11.39;54.44;99333.31;4941796;28;98886;-80
2022/02/06 12:51:43;;;;;;;2.85;0.52;;;;;;;11.50;54.93;99325.56;4940398;28;99945;-78
2022/02/06 12:54:12;;;;;;;2.00;0.50;;;;;;;11.24;55.10;99328.06;4939810;28;96851;-81
2022/02/06 12:56:40;;;;;;;0.80;0.40;;;;;;;11.62;54.10;99317.81;4940982;28;97220;-79
2022/02/06 12:59:08;;;;;;;0.50;0.40;;;;;;;11.90;52.57;99317.81;4955300;28;99311;-78
2022/02/06 13:01:38;;;;;;;1.55;0.57;;;;;;;11.35;53.63;99301.84;4966204;28;97626;-78
2022/02/06 13:04:04;;;;;;;1.33;0.40;;;;;;;10.97;55.06;99285.66;4952248;28;98380;-78
2022/02/06 13:06:36;;;;;;;0.40;0.30;;;;;;;11.06;54.94;99283.31;4943874;28;96897;-78
2022/02/06 13:09:07;;;;;;;1.38;0.60;;;;;;;11.50;53.45;99272.66;4933979;28;98085;-79
2022/02/06 13:11:44;;;;;;;0.95;0.45;;;;;;;11.38;53.14;99257.53;4944102;28;98057;-78
2022/02/06 13:14:19;;;;;;;1.48;0.40;;;;;;;11.36;53.51;99245.34;4946856;28;97415;-79